Terminal Aerodrome Forecast
Issued by NWS Boston, MA

Home | Current Version | Previous Version | Text Only | Print | Product List | Glossary On
Versions: 1 2 3 4 5 6 7 8 9 10 11 12 13 14 15 16 17 18 19 20 21 22 23 24 25 26 27
000
FTUS41 KBOX 250820 AAA
TAFPVD
TAF AMD
KPVD 250820Z 2508/2606 VRB03KT P6SM FEW200
     FM251500 20007KT P6SM SCT140
     FM251800 20011KT P6SM BKN060
     FM252100 21007KT P6SM VCTS BKN080CB
     FM260200 22005KT P6SM OVC120=

USA.gov is the U.S. government's official web portal to all federal, state and local government web resources and services.